首页
METAR-TAF:

METAR-TAF

机场 :

东京直升机场, 日本

纬度: 35-38N, 经度: 139-51E, 海拔: 5米

当前天气观测

该预报发布于2小时和54分钟前的07:00 UTC
风速4节,风向,在西东北之间变化
温度 16°C
湿度 39%
气压 1015 hPa
能见度10公里或以上
少量云层高于3000英尺

METAR: RJTI 140700Z 36004KT 270V050 9999 FEW030 16/02 Q1015

时间: 18:54 (09:54 UTC)


TAF: 丢失

超过4000个机场的气象观测和天气预报(METAR&TAF报告)。

可查询的气象台以黄色和红色小点在地图上表示。

将鼠标移到小点上方,可查看气象台名称。

然后点击查看天气观测和预报。

如需切换地图:点击带黑十字的绿色按钮放大地图;点击带横线的绿色按钮缩小地图;或者点击绿色箭头查看邻近地区的地图。


METAR-TAF: